createdAt,value
2022-10-23T00:01:26.491Z,2.88
2022-10-23T00:04:01.376Z,3.03
2022-10-23T00:06:31.708Z,2.70
2022-10-23T00:09:00.249Z,2.97
2022-10-23T00:11:29.017Z,3.00
2022-10-23T00:13:58.695Z,2.42
2022-10-23T00:16:28.837Z,2.60
2022-10-23T00:18:55.712Z,2.60
2022-10-23T00:21:22.650Z,2.60
2022-10-23T00:23:49.433Z,2.25
2022-10-23T00:26:16.293Z,2.90
2022-10-23T00:28:50.970Z,2.85
2022-10-23T00:31:18.388Z,2.65
2022-10-23T00:33:49.431Z,2.60
2022-10-23T00:36:18.465Z,2.53
2022-10-23T00:38:45.324Z,2.22
2022-10-23T00:41:28.452Z,2.47
2022-10-23T00:44:04.064Z,2.60
2022-10-23T00:46:31.122Z,2.60
2022-10-23T00:48:58.224Z,2.40
2022-10-23T00:51:27.645Z,2.38
2022-10-23T00:54:12.709Z,2.47
2022-10-23T00:56:47.111Z,2.45
2022-10-23T00:59:14.026Z,2.80
2022-10-23T01:01:41.319Z,2.58
2022-10-23T01:04:09.043Z,2.67
2022-10-23T01:06:51.074Z,2.45
2022-10-23T01:11:56.326Z,2.75
2022-10-23T01:14:42.939Z,2.67
2022-10-23T01:17:12.123Z,2.65
2022-10-23T01:19:51.100Z,2.70
2022-10-23T01:22:35.817Z,2.60
2022-10-23T01:25:10.366Z,3.03
2022-10-23T01:27:42.232Z,2.28
2022-10-23T01:32:48.328Z,2.50
2022-10-23T01:35:24.827Z,2.50
2022-10-23T01:38:01.338Z,2.30
2022-10-23T01:40:37.457Z,2.17
2022-10-23T01:43:16.499Z,2.60
2022-10-23T01:45:51.230Z,2.35
2022-10-23T01:48:25.064Z,2.45
2022-10-23T01:50:55.475Z,2.72
2022-10-23T01:53:23.382Z,2.38
2022-10-23T01:55:51.157Z,2.40
2022-10-23T01:58:21.053Z,2.20
2022-10-23T02:00:52.166Z,2.53
2022-10-23T02:03:19.028Z,2.57
2022-10-23T02:05:45.842Z,2.70
2022-10-23T02:08:12.734Z,2.33
2022-10-23T02:10:42.175Z,2.70
2022-10-23T02:13:19.131Z,2.50
2022-10-23T02:15:59.751Z,2.40
2022-10-23T02:18:31.897Z,2.47
2022-10-23T02:21:09.466Z,2.63
2022-10-23T02:23:47.054Z,1.98
2022-10-23T02:26:21.167Z,2.50
2022-10-23T02:28:57.166Z,2.40
2022-10-23T02:31:24.435Z,2.55
2022-10-23T02:33:51.062Z,2.50
2022-10-23T02:36:19.193Z,2.50
2022-10-23T02:38:45.968Z,2.60
2022-10-23T02:41:32.656Z,2.47
2022-10-23T02:44:10.714Z,2.17
2022-10-23T02:46:43.045Z,2.53
2022-10-23T02:49:20.079Z,2.42
2022-10-23T02:51:57.306Z,2.13
2022-10-23T02:54:50.907Z,2.28
2022-10-23T02:57:36.806Z,2.70
2022-10-23T03:00:11.565Z,2.40
2022-10-23T03:02:46.181Z,2.35
2022-10-23T03:05:18.543Z,2.58
2022-10-23T03:07:46.823Z,2.60
2022-10-23T03:10:13.861Z,2.50
2022-10-23T03:12:40.999Z,2.55
2022-10-23T03:15:08.674Z,2.50
2022-10-23T03:17:35.154Z,2.80
2022-10-23T03:20:01.715Z,2.60
2022-10-23T03:22:28.214Z,2.50
2022-10-23T03:24:54.752Z,2.30
2022-10-23T03:27:24.531Z,2.90
2022-10-23T03:29:51.123Z,2.75
2022-10-23T03:32:20.431Z,2.40
2022-10-23T03:34:46.900Z,2.60
2022-10-23T03:37:13.392Z,2.75
2022-10-23T03:39:40.055Z,2.28
2022-10-23T03:42:06.522Z,2.80
2022-10-23T03:44:34.169Z,2.40
2022-10-23T03:47:01.218Z,2.70
2022-10-23T03:49:27.664Z,2.28
2022-10-23T03:51:54.218Z,2.35
2022-10-23T03:54:23.399Z,2.42
2022-10-23T03:56:53.622Z,2.38
2022-10-23T03:59:23.309Z,2.45
2022-10-23T04:01:49.893Z,2.50
2022-10-23T04:04:17.273Z,2.45
2022-10-23T04:06:44.219Z,2.15
2022-10-23T04:11:42.766Z,2.42
2022-10-23T04:14:12.571Z,2.40
2022-10-23T04:16:39.365Z,2.20
2022-10-23T04:19:09.091Z,2.25
2022-10-23T04:21:35.648Z,2.72
2022-10-23T04:24:02.159Z,3.08
2022-10-23T04:26:28.623Z,2.42
2022-10-23T04:28:55.305Z,2.30
2022-10-23T04:31:21.820Z,2.63
2022-10-23T04:33:48.360Z,2.50
2022-10-23T04:36:14.835Z,2.45
2022-10-23T04:38:41.338Z,2.75
2022-10-23T04:41:07.927Z,2.80
2022-10-23T04:43:34.529Z,2.72
2022-10-23T04:46:00.997Z,3.00
2022-10-23T04:48:29.173Z,2.80
2022-10-23T04:51:01.510Z,3.83
2022-10-23T04:53:29.278Z,3.72
2022-10-23T04:55:57.971Z,3.25
2022-10-23T04:58:25.672Z,3.38
2022-10-23T05:00:52.893Z,3.33
2022-10-23T05:03:19.805Z,3.17
2022-10-23T05:05:46.583Z,3.20
2022-10-23T05:08:17.082Z,3.35
2022-10-23T05:10:44.791Z,3.38
2022-10-23T05:13:11.278Z,2.92
2022-10-23T05:15:37.852Z,3.25
2022-10-23T05:18:30.260Z,3.33
2022-10-23T05:23:27.004Z,3.42
2022-10-23T05:25:53.612Z,2.90
2022-10-23T05:28:20.174Z,3.63
2022-10-23T05:30:47.118Z,3.67
2022-10-23T05:33:13.987Z,3.47
2022-10-23T05:35:44.219Z,3.38
2022-10-23T05:38:11.674Z,2.97
2022-10-23T05:43:05.618Z,3.20
2022-10-23T05:45:32.088Z,2.85
2022-10-23T05:48:10.619Z,3.30
2022-10-23T05:50:46.175Z,3.10
2022-10-23T05:53:12.824Z,2.75
2022-10-23T05:55:39.314Z,3.03
2022-10-23T05:58:05.819Z,2.83
2022-10-23T06:00:32.894Z,3.17
2022-10-23T06:03:00.998Z,2.90
2022-10-23T06:05:27.547Z,3.40
2022-10-23T06:08:00.183Z,3.47
2022-10-23T06:10:27.365Z,3.70
2022-10-23T06:12:53.851Z,4.20
2022-10-23T06:15:20.352Z,3.65
2022-10-23T06:17:46.895Z,4.28
2022-10-23T06:20:13.441Z,4.13
2022-10-23T06:22:40.257Z,4.50
2022-10-23T06:25:07.759Z,4.07
2022-10-23T06:27:34.234Z,3.88
2022-10-23T06:30:00.777Z,4.45
2022-10-23T06:32:27.256Z,4.72
2022-10-23T06:34:53.672Z,4.95
2022-10-23T06:37:20.173Z,5.00
2022-10-23T06:39:46.643Z,4.75
2022-10-23T06:42:13.201Z,5.45
2022-10-23T06:44:39.676Z,5.78
2022-10-23T06:47:06.785Z,6.55
2022-10-23T06:49:33.291Z,6.50
2022-10-23T06:51:59.731Z,6.15
2022-10-23T06:54:26.365Z,5.85
2022-10-23T06:56:53.336Z,6.00
2022-10-23T06:59:19.893Z,6.50
2022-10-23T07:01:46.974Z,5.43
2022-10-23T07:04:16.414Z,5.57
2022-10-23T07:06:43.585Z,5.45
2022-10-23T07:09:10.099Z,5.63
2022-10-23T07:11:37.393Z,6.70
2022-10-23T07:14:04.045Z,6.25
2022-10-23T07:16:31.918Z,6.10
2022-10-23T07:19:01.059Z,6.00
2022-10-23T07:21:29.766Z,6.07
2022-10-23T07:23:57.610Z,6.57
2022-10-23T07:26:24.883Z,4.97
2022-10-23T07:28:55.004Z,3.72
2022-10-23T07:31:28.061Z,2.95
2022-10-23T07:33:54.975Z,2.58
2022-10-23T07:36:21.803Z,2.35
2022-10-23T07:38:48.353Z,2.50
2022-10-23T07:41:15.472Z,2.42
2022-10-23T07:43:41.981Z,2.25
2022-10-23T07:46:09.917Z,2.50
2022-10-23T07:48:37.821Z,2.20
2022-10-23T07:51:11.770Z,3.90
2022-10-23T07:53:38.847Z,3.00
2022-10-23T07:56:16.554Z,2.65
2022-10-23T07:58:43.842Z,2.38
2022-10-23T08:01:18.658Z,2.58
2022-10-23T08:03:45.583Z,1.95
2022-10-23T08:06:12.503Z,2.42
2022-10-23T08:08:39.029Z,2.05
2022-10-23T08:11:05.936Z,1.77
2022-10-23T08:13:32.427Z,1.88
2022-10-23T08:15:59.455Z,2.30
2022-10-23T08:18:25.891Z,2.20
2022-10-23T08:20:52.938Z,2.03
2022-10-23T08:23:20.226Z,2.63
2022-10-23T08:25:47.395Z,2.25
2022-10-23T08:28:14.970Z,1.85
2022-10-23T08:30:41.473Z,1.90
2022-10-23T08:33:08.056Z,2.00
2022-10-23T08:35:38.350Z,2.10
2022-10-23T08:38:06.319Z,1.65
2022-10-23T08:40:33.048Z,1.67
2022-10-23T08:43:05.323Z,1.52
2022-10-23T08:45:58.466Z,1.90
2022-10-23T08:48:38.384Z,2.00
2022-10-23T08:51:16.162Z,1.90
2022-10-23T08:54:02.757Z,1.88
2022-10-23T08:56:39.384Z,1.83
2022-10-23T08:59:24.983Z,1.60
2022-10-23T09:02:11.620Z,1.85
2022-10-23T09:04:38.262Z,1.70
2022-10-23T09:07:35.276Z,1.58
2022-10-23T09:10:10.486Z,1.90
2022-10-23T09:12:37.373Z,1.90
2022-10-23T09:15:28.377Z,1.75
2022-10-23T09:18:00.910Z,2.08
2022-10-23T09:20:31.975Z,1.33
2022-10-23T09:23:02.716Z,1.30
2022-10-23T09:25:41.212Z,1.38
2022-10-23T09:28:18.871Z,1.20
2022-10-23T09:30:45.378Z,1.25
2022-10-23T09:33:16.352Z,1.30
2022-10-23T09:36:02.304Z,1.55
2022-10-23T09:38:39.229Z,1.40
2022-10-23T09:41:24.586Z,1.30
2022-10-23T09:44:15.666Z,1.50
2022-10-23T09:46:44.847Z,1.50
2022-10-23T09:49:20.742Z,1.52
2022-10-23T09:52:10.425Z,1.50
2022-10-23T09:54:39.975Z,1.35
2022-10-23T09:57:23.554Z,1.27
2022-10-23T09:59:55.268Z,1.58
2022-10-23T10:02:27.448Z,1.20
2022-10-23T10:04:54.580Z,1.15
2022-10-23T10:07:31.147Z,1.30
2022-10-23T10:10:00.145Z,1.13
2022-10-23T10:12:37.493Z,1.20
2022-10-23T10:15:14.919Z,1.58
2022-10-23T10:17:47.188Z,1.60
2022-10-23T10:20:38.556Z,1.42
2022-10-23T10:23:28.575Z,1.20
2022-10-23T10:26:17.163Z,1.05
2022-10-23T10:29:02.238Z,1.23
2022-10-23T10:31:53.313Z,1.10
2022-10-23T10:34:35.006Z,1.25
2022-10-23T10:37:13.906Z,1.13
2022-10-23T10:39:55.639Z,1.38
2022-10-23T10:43:04.510Z,1.23
2022-10-23T10:45:33.855Z,1.35
2022-10-23T10:48:37.176Z,1.20
2022-10-23T10:51:11.928Z,1.25
2022-10-23T10:53:49.292Z,1.25
2022-10-23T10:56:18.894Z,1.10
2022-10-23T10:58:56.576Z,1.00
2022-10-23T11:01:28.715Z,1.30
2022-10-23T11:04:06.746Z,1.10
2022-10-23T11:06:36.541Z,1.20
2022-10-23T11:09:20.751Z,1.30
2022-10-23T11:11:48.719Z,1.20
2022-10-23T11:14:24.344Z,1.30
2022-10-23T11:16:53.629Z,1.08
2022-10-23T11:19:25.537Z,1.10
2022-10-23T11:24:59.602Z,1.08
2022-10-23T11:27:35.213Z,1.15
2022-10-23T11:30:30.991Z,1.23
2022-10-23T11:33:34.651Z,1.10
2022-10-23T11:36:17.135Z,1.00
2022-10-23T11:38:46.459Z,0.90
2022-10-23T11:41:27.173Z,1.02
2022-10-23T11:44:03.993Z,1.00
2022-10-23T11:46:40.847Z,1.00
2022-10-23T11:49:21.256Z,1.00
2022-10-23T11:51:47.983Z,1.00
2022-10-23T11:54:17.571Z,1.08
2022-10-23T11:57:11.516Z,0.90
2022-10-23T11:59:52.511Z,1.02
2022-10-23T12:02:32.961Z,1.27
2022-10-23T12:05:09.588Z,1.02
2022-10-23T12:07:38.349Z,0.93
2022-10-23T12:10:17.449Z,0.77
2022-10-23T12:12:55.512Z,1.13
2022-10-23T12:15:23.550Z,1.15
2022-10-23T12:17:51.198Z,0.90
2022-10-23T12:20:44.810Z,1.10
2022-10-23T12:23:26.299Z,1.13
2022-10-23T12:26:14.453Z,1.10
2022-10-23T12:29:19.108Z,0.98
2022-10-23T12:32:12.467Z,1.00
2022-10-23T12:35:23.922Z,1.00
2022-10-23T12:37:59.151Z,1.40
2022-10-23T12:40:30.209Z,1.20
2022-10-23T12:42:59.521Z,1.00
2022-10-23T12:45:31.964Z,1.00
2022-10-23T12:47:58.474Z,0.90
2022-10-23T12:50:27.660Z,1.33
2022-10-23T12:52:57.133Z,0.90
2022-10-23T12:55:25.610Z,0.80
2022-10-23T12:57:54.551Z,1.05
2022-10-23T13:00:23.731Z,0.80
2022-10-23T13:03:04.114Z,1.10
2022-10-23T13:05:32.179Z,0.98
2022-10-23T13:08:00.816Z,1.10
2022-10-23T13:10:27.778Z,0.80
2022-10-23T13:13:02.609Z,0.98
2022-10-23T13:15:40.682Z,0.80
2022-10-23T13:18:08.718Z,1.08
2022-10-23T13:20:42.308Z,1.13
2022-10-23T13:23:19.134Z,0.90
2022-10-23T13:25:56.774Z,0.90
2022-10-23T13:28:29.284Z,1.00
2022-10-23T13:30:58.747Z,0.90
2022-10-23T13:33:31.418Z,0.90
2022-10-23T13:36:16.587Z,1.00
2022-10-23T13:38:47.237Z,1.10
2022-10-23T13:41:17.677Z,0.90
2022-10-23T13:43:46.010Z,1.20
2022-10-23T13:46:17.438Z,1.17
2022-10-23T13:48:44.048Z,0.90
2022-10-23T13:51:14.919Z,1.00
2022-10-23T13:53:41.856Z,0.90
2022-10-23T13:56:11.963Z,0.90
2022-10-23T13:58:38.688Z,1.13
2022-10-23T14:01:06.474Z,0.90
2022-10-23T14:03:33.047Z,0.80
2022-10-23T14:06:00.468Z,0.93
2022-10-23T14:08:26.922Z,0.80
2022-10-23T14:10:53.481Z,0.88
2022-10-23T14:13:19.957Z,1.00
2022-10-23T14:15:53.861Z,0.70
2022-10-23T14:18:20.748Z,0.80
2022-10-23T14:20:47.548Z,1.10
2022-10-23T14:23:14.007Z,0.70
2022-10-23T14:25:40.537Z,1.00
2022-10-23T14:28:07.053Z,0.70
2022-10-23T14:30:36.540Z,0.90
2022-10-23T14:33:03.380Z,1.35
2022-10-23T14:35:29.926Z,1.35
2022-10-23T14:37:57.870Z,1.30
2022-10-23T14:40:24.427Z,0.98
2022-10-23T14:42:50.982Z,0.90
2022-10-23T14:45:17.466Z,0.90
2022-10-23T14:47:44.297Z,1.00
2022-10-23T14:50:12.022Z,0.90
2022-10-23T14:52:38.509Z,1.02
2022-10-23T14:55:05.291Z,0.80
2022-10-23T14:57:31.782Z,0.80
2022-10-23T14:59:58.242Z,0.80
2022-10-23T15:02:24.758Z,0.80
2022-10-23T15:04:51.225Z,1.00
2022-10-23T15:07:17.819Z,1.20
2022-10-23T15:09:44.296Z,1.10
2022-10-23T15:12:10.796Z,0.93
2022-10-23T15:14:37.367Z,1.20
2022-10-23T15:17:04.345Z,1.20
2022-10-23T15:19:31.172Z,1.00
2022-10-23T15:21:57.679Z,1.00
2022-10-23T15:24:24.479Z,1.00
2022-10-23T15:26:51.889Z,1.13
2022-10-23T15:29:19.389Z,1.10
2022-10-23T15:31:54.530Z,1.23
2022-10-23T15:34:24.605Z,0.95
2022-10-23T15:36:52.638Z,1.85
2022-10-23T15:39:22.161Z,0.95
2022-10-23T15:41:52.985Z,1.13
2022-10-23T15:44:21.583Z,1.10
2022-10-23T15:46:48.656Z,0.80
2022-10-23T15:49:15.465Z,1.10
2022-10-23T15:51:42.401Z,0.85
2022-10-23T15:54:13.136Z,1.38
2022-10-23T15:56:39.815Z,1.10
2022-10-23T15:59:06.271Z,1.30
2022-10-23T16:01:32.902Z,1.20
2022-10-23T16:03:59.433Z,1.30
2022-10-23T16:06:26.301Z,1.45
2022-10-23T16:11:27.192Z,1.30
2022-10-23T16:13:58.218Z,1.40
2022-10-23T16:16:25.010Z,1.40
2022-10-23T16:18:52.796Z,1.50
2022-10-23T16:21:25.804Z,1.83
2022-10-23T16:23:53.996Z,1.33
2022-10-23T16:26:21.364Z,1.08
2022-10-23T16:28:48.231Z,1.40
2022-10-23T16:31:20.010Z,1.00
2022-10-23T16:33:48.015Z,4.68
2022-10-23T16:36:14.554Z,1.92
2022-10-23T16:38:41.139Z,1.92
2022-10-23T16:41:07.686Z,1.30
2022-10-23T16:43:34.325Z,1.30
2022-10-23T16:46:06.390Z,1.35
2022-10-23T16:48:34.690Z,0.98
2022-10-23T16:51:05.528Z,1.00
2022-10-23T16:53:33.202Z,1.25
2022-10-23T16:56:00.114Z,0.80
2022-10-23T16:58:27.405Z,1.08
2022-10-23T17:01:02.402Z,1.20
2022-10-23T17:03:29.855Z,0.93
2022-10-23T17:06:01.733Z,0.80
2022-10-23T17:08:28.828Z,1.10
2022-10-23T17:11:08.514Z,1.10
2022-10-23T17:13:37.022Z,0.95
2022-10-23T17:16:10.031Z,1.13
2022-10-23T17:18:41.295Z,1.20
2022-10-23T17:21:11.953Z,1.42
2022-10-23T17:23:38.573Z,1.48
2022-10-23T17:26:09.034Z,2.50
2022-10-23T17:28:39.852Z,1.00
2022-10-23T17:31:33.394Z,1.00
2022-10-23T17:34:06.314Z,0.98
2022-10-23T17:36:37.055Z,1.13
2022-10-23T17:39:07.736Z,1.13
2022-10-23T17:41:35.206Z,0.90
2022-10-23T17:44:01.723Z,1.00
2022-10-23T17:46:31.837Z,1.25
2022-10-23T17:51:34.806Z,1.73
2022-10-23T17:54:04.248Z,1.10
2022-10-23T17:56:32.740Z,1.10
2022-10-23T17:59:23.609Z,1.50
2022-10-23T18:01:50.781Z,1.42
2022-10-23T18:04:20.000Z,1.02
2022-10-23T18:06:52.569Z,1.00
2022-10-23T18:09:23.080Z,1.35
2022-10-23T18:11:50.372Z,1.30
2022-10-23T18:14:20.377Z,1.33
2022-10-23T18:16:47.086Z,1.15
2022-10-23T18:19:15.629Z,1.13
2022-10-23T18:21:42.362Z,1.40
2022-10-23T18:24:09.085Z,1.20
2022-10-23T18:26:39.068Z,1.30
2022-10-23T18:29:07.839Z,1.33
2022-10-23T18:31:37.087Z,1.50
2022-10-23T18:34:07.663Z,1.60
2022-10-23T18:36:37.334Z,1.33
2022-10-23T18:39:06.813Z,1.30
2022-10-23T18:41:39.042Z,1.70
2022-10-23T18:44:05.982Z,1.80
2022-10-23T18:46:33.021Z,1.70
2022-10-23T18:48:59.779Z,1.30
2022-10-23T18:51:30.385Z,1.30
2022-10-23T18:53:57.600Z,1.90
2022-10-23T18:56:26.686Z,1.60
2022-10-23T18:58:58.761Z,1.83
2022-10-23T19:01:27.216Z,1.98
2022-10-23T19:06:27.520Z,2.60
2022-10-23T19:08:54.282Z,2.40
2022-10-23T19:11:24.119Z,1.48
2022-10-23T19:13:50.994Z,1.58
2022-10-23T19:16:27.790Z,1.90
2022-10-23T19:18:58.895Z,1.88
2022-10-23T19:21:31.746Z,1.85
2022-10-23T19:24:05.887Z,1.85
2022-10-23T19:26:34.641Z,2.03
2022-10-23T19:29:01.787Z,2.20
2022-10-23T19:31:28.443Z,2.28
2022-10-23T19:33:55.010Z,2.58
2022-10-23T19:36:23.447Z,2.67
2022-10-23T19:38:50.499Z,2.70
2022-10-23T19:41:18.367Z,2.40
2022-10-23T19:43:45.218Z,2.90
2022-10-23T19:46:12.323Z,2.80
2022-10-23T19:48:43.584Z,3.70
2022-10-23T19:51:10.704Z,2.87
2022-10-23T19:53:37.899Z,3.08
2022-10-23T19:56:06.653Z,3.67
2022-10-23T19:58:33.692Z,3.38
2022-10-23T20:01:11.690Z,3.25
2022-10-23T20:03:39.629Z,3.08
2022-10-23T20:06:09.336Z,3.15
2022-10-23T20:08:35.948Z,3.30
2022-10-23T20:11:02.768Z,2.80
2022-10-23T20:13:29.323Z,3.20
2022-10-23T20:15:55.913Z,2.78
2022-10-23T20:18:25.658Z,2.78
2022-10-23T20:20:52.936Z,3.25
2022-10-23T20:23:20.146Z,2.70
2022-10-23T20:25:46.693Z,2.53
2022-10-23T20:28:15.115Z,2.50
2022-10-23T20:30:42.522Z,2.10
2022-10-23T20:33:09.396Z,2.53
2022-10-23T20:35:42.763Z,2.28
2022-10-23T20:38:10.049Z,2.42
2022-10-23T20:40:36.613Z,2.40
2022-10-23T20:43:03.192Z,2.42
2022-10-23T20:45:29.676Z,2.28
2022-10-23T20:47:59.366Z,2.28
2022-10-23T20:50:25.869Z,2.55
2022-10-23T20:52:52.346Z,1.90
2022-10-23T20:55:19.617Z,2.00
2022-10-23T20:57:46.660Z,2.50
2022-10-23T21:00:13.749Z,2.00
2022-10-23T21:02:40.362Z,2.00
2022-10-23T21:05:07.378Z,2.17
2022-10-23T21:07:34.036Z,2.60
2022-10-23T21:10:01.154Z,2.08
2022-10-23T21:12:30.509Z,2.20
2022-10-23T21:14:57.105Z,2.15
2022-10-23T21:17:23.699Z,2.00
2022-10-23T21:19:50.224Z,2.13
2022-10-23T21:22:16.866Z,1.90
2022-10-23T21:24:43.568Z,2.00
2022-10-23T21:27:10.091Z,1.98
2022-10-23T21:29:36.543Z,2.00
2022-10-23T21:32:06.604Z,1.92
2022-10-23T21:34:33.091Z,2.00
2022-10-23T21:37:12.468Z,2.20
2022-10-23T21:39:39.810Z,1.90
2022-10-23T21:42:09.368Z,1.73
2022-10-23T21:44:35.909Z,2.20
2022-10-23T21:47:02.472Z,1.77
2022-10-23T21:49:32.508Z,1.92
2022-10-23T21:51:59.031Z,2.13
2022-10-23T21:54:25.572Z,2.00
2022-10-23T21:56:53.868Z,1.75
2022-10-23T21:59:24.094Z,2.00
2022-10-23T22:01:51.699Z,2.17
2022-10-23T22:04:19.645Z,1.80
2022-10-23T22:06:48.784Z,1.80
2022-10-23T22:09:23.662Z,1.70
2022-10-23T22:11:54.505Z,1.60
2022-10-23T22:14:22.168Z,1.20
2022-10-23T22:16:49.319Z,1.20
2022-10-23T22:19:17.081Z,1.13
2022-10-23T22:21:44.039Z,1.10
2022-10-23T22:24:10.833Z,1.20
2022-10-23T22:26:48.598Z,1.10
2022-10-23T22:29:19.729Z,0.73
2022-10-23T22:31:50.091Z,0.98
2022-10-23T22:37:15.149Z,0.90
2022-10-23T22:39:42.175Z,1.00
2022-10-23T22:42:12.167Z,1.10
2022-10-23T22:44:38.636Z,1.00
2022-10-23T22:47:05.137Z,1.10
2022-10-23T22:49:34.277Z,1.25
2022-10-23T22:52:00.771Z,1.25
2022-10-23T22:54:27.320Z,1.08
2022-10-23T22:56:57.010Z,1.25
2022-10-23T22:59:23.539Z,1.65
2022-10-23T23:01:51.111Z,1.90
2022-10-23T23:07:09.847Z,2.20
2022-10-23T23:09:41.539Z,2.10
2022-10-23T23:12:12.738Z,2.42
2022-10-23T23:14:40.193Z,1.90
2022-10-23T23:17:07.904Z,1.73
2022-10-23T23:19:35.723Z,2.00
2022-10-23T23:22:02.403Z,2.30
2022-10-23T23:24:32.257Z,2.10
2022-10-23T23:26:58.829Z,2.30
2022-10-23T23:29:29.553Z,2.40
2022-10-23T23:31:56.162Z,2.60
2022-10-23T23:34:22.886Z,2.50
2022-10-23T23:36:49.384Z,2.33
2022-10-23T23:39:16.373Z,2.35
2022-10-23T23:41:42.873Z,2.33
2022-10-23T23:44:09.982Z,2.50
2022-10-23T23:46:36.471Z,2.53
2022-10-23T23:49:03.155Z,2.38
2022-10-23T23:51:31.340Z,2.33
2022-10-23T23:53:57.828Z,2.60
2022-10-23T23:56:28.173Z,2.85
2022-10-23T23:58:58.658Z,2.50
